Terminal Aerodrome Forecast
Issued by NWS Portland, OR

Home | Current Version | Previous Version | Text Only | Print | Product List | Glossary On
Versions: 1 2 3 4 5 6 7 8 9 10 11 12 13 14 15 16 17 18 19 20 21 22 23 24 25 26
000
FTUS46 KPQR 222320
TAFAST
TAF
KAST 222320Z 2300/2324 18016G25KT P6SM -SHRA SCT040 OVC100
     FM230200 13010KT P6SM OVC100
     FM231400 09007KT P6SM BKN100=

USA.gov is the U.S. government's official web portal to all federal, state and local government web resources and services.